sensor_id;sensor_type;location;lat;lon;timestamp;P1;durP1;ratioP1;P2;durP2;ratioP2
76612;SDS011;65507;48.454;-2.058;2024-03-08T00:02:23;11.32;;;5.68;;
76612;SDS011;65507;48.454;-2.058;2024-03-08T00:04:48;14.90;;;5.72;;
76612;SDS011;65507;48.454;-2.058;2024-03-08T00:07:14;11.20;;;5.57;;
76612;SDS011;65507;48.454;-2.058;2024-03-08T00:09:40;12.23;;;6.03;;
76612;SDS011;65507;48.454;-2.058;2024-03-08T00:12:06;12.50;;;5.88;;
76612;SDS011;65507;48.454;-2.058;2024-03-08T00:14:32;11.10;;;5.88;;
76612;SDS011;65507;48.454;-2.058;2024-03-08T00:16:58;15.52;;;6.70;;
76612;SDS011;65507;48.454;-2.058;2024-03-08T00:19:23;12.35;;;5.60;;
76612;SDS011;65507;48.454;-2.058;2024-03-08T00:21:49;10.57;;;5.90;;
76612;SDS011;65507;48.454;-2.058;2024-03-08T00:24:15;10.10;;;5.47;;
76612;SDS011;65507;48.454;-2.058;2024-03-08T00:26:41;14.98;;;6.03;;
76612;SDS011;65507;48.454;-2.058;2024-03-08T00:29:07;14.52;;;6.47;;
76612;SDS011;65507;48.454;-2.058;2024-03-08T00:31:33;13.60;;;5.70;;
76612;SDS011;65507;48.454;-2.058;2024-03-08T00:33:58;12.77;;;6.13;;
76612;SDS011;65507;48.454;-2.058;2024-03-08T00:36:24;10.77;;;5.55;;
76612;SDS011;65507;48.454;-2.058;2024-03-08T00:38:50;15.45;;;5.82;;
76612;SDS011;65507;48.454;-2.058;2024-03-08T00:41:16;11.02;;;5.93;;
76612;SDS011;65507;48.454;-2.058;2024-03-08T00:43:41;9.93;;;5.57;;
76612;SDS011;65507;48.454;-2.058;2024-03-08T00:46:07;13.45;;;6.28;;
76612;SDS011;65507;48.454;-2.058;2024-03-08T00:48:33;12.32;;;6.43;;
76612;SDS011;65507;48.454;-2.058;2024-03-08T00:50:58;13.95;;;6.28;;
76612;SDS011;65507;48.454;-2.058;2024-03-08T00:53:24;15.30;;;6.25;;
76612;SDS011;65507;48.454;-2.058;2024-03-08T00:55:50;13.70;;;5.78;;
76612;SDS011;65507;48.454;-2.058;2024-03-08T00:58:15;14.40;;;6.35;;
76612;SDS011;65507;48.454;-2.058;2024-03-08T01:00:41;12.00;;;5.72;;
76612;SDS011;65507;48.454;-2.058;2024-03-08T01:03:07;15.63;;;6.45;;
76612;SDS011;65507;48.454;-2.058;2024-03-08T01:05:33;13.10;;;6.03;;
76612;SDS011;65507;48.454;-2.058;2024-03-08T01:08:00;17.98;;;7.05;;
76612;SDS011;65507;48.454;-2.058;2024-03-08T01:10:28;13.65;;;6.13;;
76612;SDS011;65507;48.454;-2.058;2024-03-08T01:12:53;12.90;;;6.03;;
76612;SDS011;65507;48.454;-2.058;2024-03-08T01:15:21;14.68;;;6.50;;
76612;SDS011;65507;48.454;-2.058;2024-03-08T01:17:47;15.73;;;5.90;;
76612;SDS011;65507;48.454;-2.058;2024-03-08T01:20:13;14.25;;;6.05;;
76612;SDS011;65507;48.454;-2.058;2024-03-08T01:22:40;16.17;;;6.22;;
76612;SDS011;65507;48.454;-2.058;2024-03-08T01:25:06;13.67;;;6.77;;
76612;SDS011;65507;48.454;-2.058;2024-03-08T01:30:00;12.20;;;5.35;;
76612;SDS011;65507;48.454;-2.058;2024-03-08T01:32:26;14.75;;;6.22;;
76612;SDS011;65507;48.454;-2.058;2024-03-08T01:34:52;15.93;;;6.47;;
76612;SDS011;65507;48.454;-2.058;2024-03-08T01:37:17;13.00;;;5.63;;
76612;SDS011;65507;48.454;-2.058;2024-03-08T01:39:43;15.20;;;6.30;;
76612;SDS011;65507;48.454;-2.058;2024-03-08T01:42:09;11.35;;;5.85;;
76612;SDS011;65507;48.454;-2.058;2024-03-08T01:44:37;12.85;;;6.75;;
76612;SDS011;65507;48.454;-2.058;2024-03-08T01:47:04;12.02;;;6.55;;
76612;SDS011;65507;48.454;-2.058;2024-03-08T01:49:30;13.35;;;6.13;;
76612;SDS011;65507;48.454;-2.058;2024-03-08T01:51:56;12.50;;;5.90;;
76612;SDS011;65507;48.454;-2.058;2024-03-08T01:54:22;9.75;;;5.30;;
76612;SDS011;65507;48.454;-2.058;2024-03-08T01:56:49;16.38;;;6.53;;
76612;SDS011;65507;48.454;-2.058;2024-03-08T01:59:15;13.65;;;6.65;;
76612;SDS011;65507;48.454;-2.058;2024-03-08T02:01:41;12.70;;;6.07;;
76612;SDS011;65507;48.454;-2.058;2024-03-08T02:04:08;16.02;;;6.97;;
76612;SDS011;65507;48.454;-2.058;2024-03-08T02:06:34;14.27;;;6.15;;
76612;SDS011;65507;48.454;-2.058;2024-03-08T02:08:59;14.75;;;6.90;;
76612;SDS011;65507;48.454;-2.058;2024-03-08T02:11:30;11.63;;;5.78;;
76612;SDS011;65507;48.454;-2.058;2024-03-08T02:13:57;11.85;;;6.30;;
76612;SDS011;65507;48.454;-2.058;2024-03-08T02:16:23;13.02;;;5.45;;
76612;SDS011;65507;48.454;-2.058;2024-03-08T02:18:49;12.90;;;5.70;;
76612;SDS011;65507;48.454;-2.058;2024-03-08T02:21:15;13.65;;;6.32;;
76612;SDS011;65507;48.454;-2.058;2024-03-08T02:23:46;12.77;;;6.40;;
76612;SDS011;65507;48.454;-2.058;2024-03-08T02:26:11;13.48;;;5.90;;
76612;SDS011;65507;48.454;-2.058;2024-03-08T02:28:37;13.30;;;6.25;;
76612;SDS011;65507;48.454;-2.058;2024-03-08T02:31:04;13.73;;;5.70;;
76612;SDS011;65507;48.454;-2.058;2024-03-08T02:33:33;12.05;;;5.80;;
76612;SDS011;65507;48.454;-2.058;2024-03-08T02:35:58;11.38;;;5.50;;
76612;SDS011;65507;48.454;-2.058;2024-03-08T02:38:25;14.05;;;5.88;;
76612;SDS011;65507;48.454;-2.058;2024-03-08T02:40:51;14.57;;;6.63;;
76612;SDS011;65507;48.454;-2.058;2024-03-08T02:43:18;14.02;;;6.05;;
76612;SDS011;65507;48.454;-2.058;2024-03-08T02:45:44;14.68;;;6.13;;
76612;SDS011;65507;48.454;-2.058;2024-03-08T02:48:11;12.63;;;5.72;;
76612;SDS011;65507;48.454;-2.058;2024-03-08T02:50:37;13.98;;;6.05;;
76612;SDS011;65507;48.454;-2.058;2024-03-08T02:53:07;14.05;;;6.07;;
76612;SDS011;65507;48.454;-2.058;2024-03-08T02:55:33;15.13;;;5.88;;
76612;SDS011;65507;48.454;-2.058;2024-03-08T02:58:01;14.30;;;5.90;;
76612;SDS011;65507;48.454;-2.058;2024-03-08T03:02:55;14.82;;;5.90;;
76612;SDS011;65507;48.454;-2.058;2024-03-08T03:05:21;12.40;;;5.93;;
76612;SDS011;65507;48.454;-2.058;2024-03-08T03:07:48;13.23;;;6.15;;
76612;SDS011;65507;48.454;-2.058;2024-03-08T03:10:14;13.85;;;6.28;;
76612;SDS011;65507;48.454;-2.058;2024-03-08T03:12:44;14.10;;;6.60;;
76612;SDS011;65507;48.454;-2.058;2024-03-08T03:15:11;14.77;;;6.13;;
76612;SDS011;65507;48.454;-2.058;2024-03-08T03:17:38;12.20;;;5.70;;
76612;SDS011;65507;48.454;-2.058;2024-03-08T03:20:05;11.00;;;5.72;;
76612;SDS011;65507;48.454;-2.058;2024-03-08T03:22:34;12.88;;;6.20;;
76612;SDS011;65507;48.454;-2.058;2024-03-08T03:25:02;11.07;;;5.82;;
76612;SDS011;65507;48.454;-2.058;2024-03-08T03:27:29;10.75;;;5.78;;
76612;SDS011;65507;48.454;-2.058;2024-03-08T03:29:55;13.38;;;5.88;;
76612;SDS011;65507;48.454;-2.058;2024-03-08T03:32:22;14.25;;;5.80;;
76612;SDS011;65507;48.454;-2.058;2024-03-08T03:34:48;12.77;;;5.68;;
76612;SDS011;65507;48.454;-2.058;2024-03-08T03:37:18;11.93;;;6.13;;
76612;SDS011;65507;48.454;-2.058;2024-03-08T03:39:44;12.52;;;5.85;;
76612;SDS011;65507;48.454;-2.058;2024-03-08T03:42:16;12.77;;;5.55;;
76612;SDS011;65507;48.454;-2.058;2024-03-08T03:44:46;11.10;;;5.82;;
76612;SDS011;65507;48.454;-2.058;2024-03-08T03:47:13;13.32;;;6.00;;
76612;SDS011;65507;48.454;-2.058;2024-03-08T03:49:42;13.60;;;5.80;;
76612;SDS011;65507;48.454;-2.058;2024-03-08T03:52:07;15.68;;;6.32;;
76612;SDS011;65507;48.454;-2.058;2024-03-08T03:54:34;11.50;;;4.97;;
76612;SDS011;65507;48.454;-2.058;2024-03-08T03:56:59;13.63;;;5.75;;
76612;SDS011;65507;48.454;-2.058;2024-03-08T03:59:26;14.38;;;5.97;;
76612;SDS011;65507;48.454;-2.058;2024-03-08T04:01:52;14.73;;;6.22;;
76612;SDS011;65507;48.454;-2.058;2024-03-08T04:04:19;14.35;;;6.32;;
76612;SDS011;65507;48.454;-2.058;2024-03-08T04:06:45;13.50;;;5.47;;
76612;SDS011;65507;48.454;-2.058;2024-03-08T04:09:11;13.02;;;6.13;;
76612;SDS011;65507;48.454;-2.058;2024-03-08T04:11:37;11.70;;;5.68;;
76612;SDS011;65507;48.454;-2.058;2024-03-08T04:14:03;13.35;;;6.05;;
76612;SDS011;65507;48.454;-2.058;2024-03-08T04:16:30;13.35;;;5.70;;
76612;SDS011;65507;48.454;-2.058;2024-03-08T04:18:56;12.82;;;6.20;;
76612;SDS011;65507;48.454;-2.058;2024-03-08T04:21:23;12.32;;;5.57;;
76612;SDS011;65507;48.454;-2.058;2024-03-08T04:23:48;11.25;;;5.72;;
76612;SDS011;65507;48.454;-2.058;2024-03-08T04:26:14;12.05;;;5.68;;
76612;SDS011;65507;48.454;-2.058;2024-03-08T04:28:40;15.23;;;6.05;;
76612;SDS011;65507;48.454;-2.058;2024-03-08T04:31:06;18.58;;;6.65;;
76612;SDS011;65507;48.454;-2.058;2024-03-08T04:33:32;11.68;;;5.70;;
76612;SDS011;65507;48.454;-2.058;2024-03-08T04:36:00;14.82;;;5.90;;
76612;SDS011;65507;48.454;-2.058;2024-03-08T04:38:29;14.40;;;6.68;;
76612;SDS011;65507;48.454;-2.058;2024-03-08T04:40:55;14.05;;;5.93;;
76612;SDS011;65507;48.454;-2.058;2024-03-08T04:43:24;11.63;;;5.63;;
76612;SDS011;65507;48.454;-2.058;2024-03-08T04:45:51;17.02;;;6.43;;
76612;SDS011;65507;48.454;-2.058;2024-03-08T04:48:18;16.52;;;6.78;;
76612;SDS011;65507;48.454;-2.058;2024-03-08T04:50:45;14.57;;;6.22;;
76612;SDS011;65507;48.454;-2.058;2024-03-08T04:53:12;15.63;;;6.18;;
76612;SDS011;65507;48.454;-2.058;2024-03-08T04:55:38;13.38;;;6.32;;
76612;SDS011;65507;48.454;-2.058;2024-03-08T04:58:04;13.90;;;6.82;;
76612;SDS011;65507;48.454;-2.058;2024-03-08T05:00:32;14.20;;;5.97;;
76612;SDS011;65507;48.454;-2.058;2024-03-08T05:02:58;12.63;;;5.80;;
76612;SDS011;65507;48.454;-2.058;2024-03-08T05:05:24;18.88;;;6.38;;
76612;SDS011;65507;48.454;-2.058;2024-03-08T05:07:51;16.85;;;6.80;;
76612;SDS011;65507;48.454;-2.058;2024-03-08T05:10:16;15.45;;;6.75;;
76612;SDS011;65507;48.454;-2.058;2024-03-08T05:12:43;14.60;;;7.10;;
76612;SDS011;65507;48.454;-2.058;2024-03-08T05:15:09;14.90;;;6.78;;
76612;SDS011;65507;48.454;-2.058;2024-03-08T05:17:35;19.67;;;7.05;;
76612;SDS011;65507;48.454;-2.058;2024-03-08T05:20:01;15.60;;;7.07;;
76612;SDS011;65507;48.454;-2.058;2024-03-08T05:22:27;17.80;;;7.65;;
76612;SDS011;65507;48.454;-2.058;2024-03-08T05:24:53;15.65;;;6.95;;
76612;SDS011;65507;48.454;-2.058;2024-03-08T05:27:18;18.15;;;7.53;;
76612;SDS011;65507;48.454;-2.058;2024-03-08T05:29:44;18.55;;;7.30;;
76612;SDS011;65507;48.454;-2.058;2024-03-08T05:32:11;16.30;;;6.95;;
76612;SDS011;65507;48.454;-2.058;2024-03-08T05:34:37;17.80;;;7.47;;
76612;SDS011;65507;48.454;-2.058;2024-03-08T05:37:03;20.00;;;8.15;;
76612;SDS011;65507;48.454;-2.058;2024-03-08T05:39:29;16.80;;;7.20;;
76612;SDS011;65507;48.454;-2.058;2024-03-08T05:41:55;16.10;;;6.88;;
76612;SDS011;65507;48.454;-2.058;2024-03-08T05:44:21;19.55;;;7.88;;
76612;SDS011;65507;48.454;-2.058;2024-03-08T05:46:48;19.10;;;7.13;;
76612;SDS011;65507;48.454;-2.058;2024-03-08T05:49:14;22.00;;;9.15;;
76612;SDS011;65507;48.454;-2.058;2024-03-08T05:51:40;18.92;;;8.38;;
76612;SDS011;65507;48.454;-2.058;2024-03-08T05:54:06;20.75;;;8.88;;
76612;SDS011;65507;48.454;-2.058;2024-03-08T05:56:36;17.80;;;8.27;;
76612;SDS011;65507;48.454;-2.058;2024-03-08T05:59:03;19.27;;;8.60;;
76612;SDS011;65507;48.454;-2.058;2024-03-08T06:01:29;18.77;;;7.78;;
76612;SDS011;65507;48.454;-2.058;2024-03-08T06:03:56;19.42;;;8.23;;
76612;SDS011;65507;48.454;-2.058;2024-03-08T06:06:25;19.30;;;7.85;;
76612;SDS011;65507;48.454;-2.058;2024-03-08T06:08:51;19.20;;;8.85;;
76612;SDS011;65507;48.454;-2.058;2024-03-08T06:11:18;20.45;;;8.63;;
76612;SDS011;65507;48.454;-2.058;2024-03-08T06:13:45;21.52;;;7.88;;
76612;SDS011;65507;48.454;-2.058;2024-03-08T06:16:11;22.65;;;8.95;;
76612;SDS011;65507;48.454;-2.058;2024-03-08T06:18:37;20.75;;;8.20;;
76612;SDS011;65507;48.454;-2.058;2024-03-08T06:21:03;23.25;;;8.82;;
76612;SDS011;65507;48.454;-2.058;2024-03-08T06:23:32;19.65;;;8.57;;
76612;SDS011;65507;48.454;-2.058;2024-03-08T06:25:58;19.90;;;9.38;;
76612;SDS011;65507;48.454;-2.058;2024-03-08T06:28:24;19.98;;;8.82;;
76612;SDS011;65507;48.454;-2.058;2024-03-08T06:30:50;19.95;;;9.23;;
76612;SDS011;65507;48.454;-2.058;2024-03-08T06:33:17;18.15;;;7.90;;
76612;SDS011;65507;48.454;-2.058;2024-03-08T06:35:43;19.88;;;8.00;;
76612;SDS011;65507;48.454;-2.058;2024-03-08T06:38:08;23.33;;;8.60;;
76612;SDS011;65507;48.454;-2.058;2024-03-08T06:40:35;22.42;;;8.30;;
76612;SDS011;65507;48.454;-2.058;2024-03-08T06:43:00;19.33;;;8.45;;
76612;SDS011;65507;48.454;-2.058;2024-03-08T06:45:26;22.25;;;8.90;;
76612;SDS011;65507;48.454;-2.058;2024-03-08T06:47:53;21.63;;;8.35;;
76612;SDS011;65507;48.454;-2.058;2024-03-08T06:50:19;21.70;;;8.63;;
76612;SDS011;65507;48.454;-2.058;2024-03-08T06:52:45;24.10;;;9.57;;
76612;SDS011;65507;48.454;-2.058;2024-03-08T06:55:15;22.25;;;8.73;;
76612;SDS011;65507;48.454;-2.058;2024-03-08T06:57:42;20.42;;;8.32;;
76612;SDS011;65507;48.454;-2.058;2024-03-08T07:00:08;24.50;;;10.07;;
76612;SDS011;65507;48.454;-2.058;2024-03-08T07:02:36;20.77;;;8.80;;
76612;SDS011;65507;48.454;-2.058;2024-03-08T07:05:02;22.10;;;9.60;;
76612;SDS011;65507;48.454;-2.058;2024-03-08T07:07:29;22.38;;;8.38;;
76612;SDS011;65507;48.454;-2.058;2024-03-08T07:09:56;20.67;;;8.70;;
76612;SDS011;65507;48.454;-2.058;2024-03-08T07:12:25;21.20;;;9.05;;
76612;SDS011;65507;48.454;-2.058;2024-03-08T07:14:51;21.38;;;8.32;;
76612;SDS011;65507;48.454;-2.058;2024-03-08T07:17:17;22.38;;;8.82;;
76612;SDS011;65507;48.454;-2.058;2024-03-08T07:19:43;21.15;;;8.60;;
76612;SDS011;65507;48.454;-2.058;2024-03-08T07:22:08;22.13;;;8.82;;
76612;SDS011;65507;48.454;-2.058;2024-03-08T07:24:35;21.25;;;9.15;;
76612;SDS011;65507;48.454;-2.058;2024-03-08T07:27:19;19.50;;;8.98;;
76612;SDS011;65507;48.454;-2.058;2024-03-08T07:29:44;18.65;;;8.98;;
76612;SDS011;65507;48.454;-2.058;2024-03-08T07:32:11;22.20;;;9.70;;
76612;SDS011;65507;48.454;-2.058;2024-03-08T07:34:57;21.15;;;8.70;;
76612;SDS011;65507;48.454;-2.058;2024-03-08T07:37:23;23.05;;;7.63;;
76612;SDS011;65507;48.454;-2.058;2024-03-08T07:39:49;22.60;;;8.82;;
76612;SDS011;65507;48.454;-2.058;2024-03-08T07:42:15;18.75;;;8.40;;
76612;SDS011;65507;48.454;-2.058;2024-03-08T07:44:42;22.10;;;8.48;;
76612;SDS011;65507;48.454;-2.058;2024-03-08T07:47:08;19.05;;;8.13;;
76612;SDS011;65507;48.454;-2.058;2024-03-08T07:49:35;18.60;;;7.80;;
76612;SDS011;65507;48.454;-2.058;2024-03-08T07:52:02;21.73;;;8.45;;
76612;SDS011;65507;48.454;-2.058;2024-03-08T07:54:29;16.58;;;7.55;;
76612;SDS011;65507;48.454;-2.058;2024-03-08T07:56:55;20.63;;;8.90;;
76612;SDS011;65507;48.454;-2.058;2024-03-08T07:59:21;18.67;;;8.20;;
76612;SDS011;65507;48.454;-2.058;2024-03-08T08:01:47;20.73;;;7.88;;
76612;SDS011;65507;48.454;-2.058;2024-03-08T08:04:13;19.67;;;7.95;;
76612;SDS011;65507;48.454;-2.058;2024-03-08T08:06:39;20.65;;;8.43;;
76612;SDS011;65507;48.454;-2.058;2024-03-08T08:09:08;21.92;;;9.38;;
76612;SDS011;65507;48.454;-2.058;2024-03-08T08:11:40;20.50;;;8.27;;
76612;SDS011;65507;48.454;-2.058;2024-03-08T08:14:10;19.45;;;9.32;;
76612;SDS011;65507;48.454;-2.058;2024-03-08T08:16:36;17.50;;;7.63;;
76612;SDS011;65507;48.454;-2.058;2024-03-08T08:19:03;25.42;;;8.63;;
76612;SDS011;65507;48.454;-2.058;2024-03-08T08:21:35;20.25;;;8.38;;
76612;SDS011;65507;48.454;-2.058;2024-03-08T08:24:04;17.17;;;7.57;;
76612;SDS011;65507;48.454;-2.058;2024-03-08T08:26:29;19.77;;;8.02;;
76612;SDS011;65507;48.454;-2.058;2024-03-08T08:28:55;20.80;;;8.82;;
76612;SDS011;65507;48.454;-2.058;2024-03-08T08:31:21;18.33;;;7.65;;
76612;SDS011;65507;48.454;-2.058;2024-03-08T08:33:48;16.58;;;7.97;;
76612;SDS011;65507;48.454;-2.058;2024-03-08T08:36:14;18.95;;;8.13;;
76612;SDS011;65507;48.454;-2.058;2024-03-08T08:38:40;19.70;;;9.30;;
76612;SDS011;65507;48.454;-2.058;2024-03-08T08:41:09;20.55;;;9.60;;
76612;SDS011;65507;48.454;-2.058;2024-03-08T08:43:36;15.43;;;7.38;;
76612;SDS011;65507;48.454;-2.058;2024-03-08T08:46:01;18.92;;;7.43;;
76612;SDS011;65507;48.454;-2.058;2024-03-08T08:48:27;14.82;;;6.78;;
76612;SDS011;65507;48.454;-2.058;2024-03-08T08:50:55;17.40;;;8.05;;
76612;SDS011;65507;48.454;-2.058;2024-03-08T08:53:21;15.35;;;7.10;;
76612;SDS011;65507;48.454;-2.058;2024-03-08T08:55:47;17.02;;;7.68;;
76612;SDS011;65507;48.454;-2.058;2024-03-08T08:58:13;15.02;;;7.03;;
76612;SDS011;65507;48.454;-2.058;2024-03-08T09:00:39;13.95;;;6.00;;
76612;SDS011;65507;48.454;-2.058;2024-03-08T09:03:05;14.95;;;6.80;;
76612;SDS011;65507;48.454;-2.058;2024-03-08T09:05:32;17.13;;;7.38;;
76612;SDS011;65507;48.454;-2.058;2024-03-08T09:07:58;15.63;;;7.15;;
76612;SDS011;65507;48.454;-2.058;2024-03-08T09:10:25;13.18;;;7.10;;
76612;SDS011;65507;48.454;-2.058;2024-03-08T09:12:50;13.40;;;6.45;;
76612;SDS011;65507;48.454;-2.058;2024-03-08T09:15:16;16.60;;;6.63;;
76612;SDS011;65507;48.454;-2.058;2024-03-08T09:17:42;11.68;;;5.78;;
76612;SDS011;65507;48.454;-2.058;2024-03-08T09:20:09;15.45;;;7.40;;
76612;SDS011;65507;48.454;-2.058;2024-03-08T09:22:39;16.48;;;6.88;;
76612;SDS011;65507;48.454;-2.058;2024-03-08T09:25:09;14.10;;;6.50;;
76612;SDS011;65507;48.454;-2.058;2024-03-08T09:27:35;13.13;;;6.40;;
76612;SDS011;65507;48.454;-2.058;2024-03-08T09:30:00;15.10;;;6.75;;
76612;SDS011;65507;48.454;-2.058;2024-03-08T09:32:26;15.73;;;6.75;;
76612;SDS011;65507;48.454;-2.058;2024-03-08T09:34:52;13.40;;;6.38;;
76612;SDS011;65507;48.454;-2.058;2024-03-08T09:37:18;14.60;;;6.78;;
76612;SDS011;65507;48.454;-2.058;2024-03-08T09:39:44;13.57;;;6.72;;
76612;SDS011;65507;48.454;-2.058;2024-03-08T09:42:10;8.52;;;4.88;;
76612;SDS011;65507;48.454;-2.058;2024-03-08T09:44:39;14.63;;;5.95;;
76612;SDS011;65507;48.454;-2.058;2024-03-08T09:47:14;14.85;;;5.63;;
76612;SDS011;65507;48.454;-2.058;2024-03-08T09:49:41;11.30;;;5.57;;
76612;SDS011;65507;48.454;-2.058;2024-03-08T09:52:08;14.77;;;6.32;;
76612;SDS011;65507;48.454;-2.058;2024-03-08T09:54:35;13.18;;;6.22;;
76612;SDS011;65507;48.454;-2.058;2024-03-08T09:57:03;10.52;;;5.10;;
76612;SDS011;65507;48.454;-2.058;2024-03-08T09:59:29;11.40;;;5.43;;
76612;SDS011;65507;48.454;-2.058;2024-03-08T10:02:00;13.68;;;5.80;;
76612;SDS011;65507;48.454;-2.058;2024-03-08T10:04:28;13.27;;;5.57;;
76612;SDS011;65507;48.454;-2.058;2024-03-08T10:06:59;13.93;;;5.43;;
76612;SDS011;65507;48.454;-2.058;2024-03-08T10:09:25;10.68;;;5.28;;
76612;SDS011;65507;48.454;-2.058;2024-03-08T10:12:01;10.25;;;5.25;;
76612;SDS011;65507;48.454;-2.058;2024-03-08T10:14:28;12.32;;;6.15;;
76612;SDS011;65507;48.454;-2.058;2024-03-08T10:16:53;16.92;;;5.80;;
76612;SDS011;65507;48.454;-2.058;2024-03-08T10:19:19;12.93;;;5.47;;
76612;SDS011;65507;48.454;-2.058;2024-03-08T10:21:51;12.27;;;5.65;;
76612;SDS011;65507;48.454;-2.058;2024-03-08T10:24:18;11.77;;;5.85;;
76612;SDS011;65507;48.454;-2.058;2024-03-08T10:26:44;10.93;;;5.80;;
76612;SDS011;65507;48.454;-2.058;2024-03-08T10:29:11;11.95;;;5.10;;
76612;SDS011;65507;48.454;-2.058;2024-03-08T10:31:42;9.88;;;4.95;;
76612;SDS011;65507;48.454;-2.058;2024-03-08T10:34:11;10.13;;;4.93;;
76612;SDS011;65507;48.454;-2.058;2024-03-08T10:36:37;9.07;;;5.07;;
76612;SDS011;65507;48.454;-2.058;2024-03-08T10:39:39;14.23;;;5.10;;
76612;SDS011;65507;48.454;-2.058;2024-03-08T10:42:04;11.50;;;4.65;;
76612;SDS011;65507;48.454;-2.058;2024-03-08T10:44:49;11.45;;;4.80;;
76612;SDS011;65507;48.454;-2.058;2024-03-08T10:47:29;9.75;;;4.57;;
76612;SDS011;65507;48.454;-2.058;2024-03-08T10:50:12;11.68;;;4.88;;
76612;SDS011;65507;48.454;-2.058;2024-03-08T10:52:43;17.75;;;5.85;;
76612;SDS011;65507;48.454;-2.058;2024-03-08T10:55:09;13.43;;;5.07;;
76612;SDS011;65507;48.454;-2.058;2024-03-08T10:57:38;12.80;;;5.60;;
76612;SDS011;65507;48.454;-2.058;2024-03-08T11:00:06;13.70;;;5.47;;
76612;SDS011;65507;48.454;-2.058;2024-03-08T11:02:35;20.52;;;5.45;;
76612;SDS011;65507;48.454;-2.058;2024-03-08T11:07:30;14.30;;;6.03;;
76612;SDS011;65507;48.454;-2.058;2024-03-08T11:10:01;9.05;;;4.80;;
76612;SDS011;65507;48.454;-2.058;2024-03-08T11:12:31;10.45;;;4.45;;
76612;SDS011;65507;48.454;-2.058;2024-03-08T11:15:13;10.07;;;5.35;;
76612;SDS011;65507;48.454;-2.058;2024-03-08T11:20:13;8.57;;;4.60;;
76612;SDS011;65507;48.454;-2.058;2024-03-08T11:22:55;10.48;;;4.57;;
76612;SDS011;65507;48.454;-2.058;2024-03-08T11:25:39;7.60;;;4.00;;
76612;SDS011;65507;48.454;-2.058;2024-03-08T11:30:45;8.48;;;4.20;;
76612;SDS011;65507;48.454;-2.058;2024-03-08T11:33:27;10.90;;;4.50;;
76612;SDS011;65507;48.454;-2.058;2024-03-08T11:38:47;9.68;;;4.85;;
76612;SDS011;65507;48.454;-2.058;2024-03-08T11:41:18;9.27;;;4.22;;
76612;SDS011;65507;48.454;-2.058;2024-03-08T11:43:45;7.38;;;4.13;;
76612;SDS011;65507;48.454;-2.058;2024-03-08T11:46:11;12.00;;;3.90;;
76612;SDS011;65507;48.454;-2.058;2024-03-08T11:48:39;7.72;;;3.83;;
76612;SDS011;65507;48.454;-2.058;2024-03-08T11:51:07;9.75;;;4.68;;
76612;SDS011;65507;48.454;-2.058;2024-03-08T11:53:40;8.45;;;3.97;;
76612;SDS011;65507;48.454;-2.058;2024-03-08T11:56:13;8.33;;;3.97;;
76612;SDS011;65507;48.454;-2.058;2024-03-08T11:58:39;10.15;;;4.28;;
76612;SDS011;65507;48.454;-2.058;2024-03-08T12:01:09;9.48;;;4.00;;
76612;SDS011;65507;48.454;-2.058;2024-03-08T12:03:39;9.65;;;3.63;;
76612;SDS011;65507;48.454;-2.058;2024-03-08T12:06:07;10.93;;;4.65;;
76612;SDS011;65507;48.454;-2.058;2024-03-08T12:08:38;15.68;;;4.80;;
76612;SDS011;65507;48.454;-2.058;2024-03-08T12:11:04;14.35;;;4.85;;
76612;SDS011;65507;48.454;-2.058;2024-03-08T12:13:30;13.90;;;4.30;;
76612;SDS011;65507;48.454;-2.058;2024-03-08T12:15:59;9.18;;;4.10;;
76612;SDS011;65507;48.454;-2.058;2024-03-08T12:18:25;10.55;;;5.00;;
76612;SDS011;65507;48.454;-2.058;2024-03-08T12:21:03;11.32;;;4.68;;
76612;SDS011;65507;48.454;-2.058;2024-03-08T12:23:39;8.75;;;4.10;;
76612;SDS011;65507;48.454;-2.058;2024-03-08T12:26:18;11.10;;;4.70;;
76612;SDS011;65507;48.454;-2.058;2024-03-08T12:28:49;14.40;;;4.40;;
76612;SDS011;65507;48.454;-2.058;2024-03-08T12:31:17;14.23;;;5.22;;
76612;SDS011;65507;48.454;-2.058;2024-03-08T12:33:53;15.90;;;5.53;;
76612;SDS011;65507;48.454;-2.058;2024-03-08T12:36:21;14.85;;;5.50;;
76612;SDS011;65507;48.454;-2.058;2024-03-08T12:38:47;10.57;;;4.63;;
76612;SDS011;65507;48.454;-2.058;2024-03-08T12:41:17;8.68;;;4.05;;
76612;SDS011;65507;48.454;-2.058;2024-03-08T12:43:47;9.52;;;3.72;;
76612;SDS011;65507;48.454;-2.058;2024-03-08T12:46:16;8.73;;;3.85;;
76612;SDS011;65507;48.454;-2.058;2024-03-08T12:48:43;9.88;;;3.38;;
76612;SDS011;65507;48.454;-2.058;2024-03-08T12:51:12;7.65;;;4.15;;
76612;SDS011;65507;48.454;-2.058;2024-03-08T12:53:38;5.83;;;3.70;;
76612;SDS011;65507;48.454;-2.058;2024-03-08T12:58:33;6.50;;;3.38;;
76612;SDS011;65507;48.454;-2.058;2024-03-08T13:01:03;9.52;;;3.97;;
76612;SDS011;65507;48.454;-2.058;2024-03-08T13:03:35;8.57;;;3.90;;
76612;SDS011;65507;48.454;-2.058;2024-03-08T13:06:05;11.13;;;5.43;;
76612;SDS011;65507;48.454;-2.058;2024-03-08T13:08:33;7.55;;;3.80;;
76612;SDS011;65507;48.454;-2.058;2024-03-08T13:11:04;7.05;;;3.30;;
76612;SDS011;65507;48.454;-2.058;2024-03-08T13:13:30;7.10;;;3.15;;
76612;SDS011;65507;48.454;-2.058;2024-03-08T13:15:58;7.18;;;3.25;;
76612;SDS011;65507;48.454;-2.058;2024-03-08T13:18:26;6.95;;;2.97;;
76612;SDS011;65507;48.454;-2.058;2024-03-08T13:20:52;10.43;;;3.05;;
76612;SDS011;65507;48.454;-2.058;2024-03-08T13:23:19;6.55;;;2.97;;
76612;SDS011;65507;48.454;-2.058;2024-03-08T13:25:45;8.60;;;3.45;;
76612;SDS011;65507;48.454;-2.058;2024-03-08T13:30:38;6.78;;;3.00;;
76612;SDS011;65507;48.454;-2.058;2024-03-08T13:33:04;5.13;;;2.53;;
76612;SDS011;65507;48.454;-2.058;2024-03-08T13:35:30;6.75;;;3.10;;
76612;SDS011;65507;48.454;-2.058;2024-03-08T13:37:57;5.07;;;2.75;;
76612;SDS011;65507;48.454;-2.058;2024-03-08T13:40:23;6.03;;;2.60;;
76612;SDS011;65507;48.454;-2.058;2024-03-08T13:42:48;5.60;;;3.00;;
76612;SDS011;65507;48.454;-2.058;2024-03-08T13:45:14;10.00;;;2.97;;
76612;SDS011;65507;48.454;-2.058;2024-03-08T13:47:47;5.93;;;2.50;;
76612;SDS011;65507;48.454;-2.058;2024-03-08T13:50:14;5.97;;;2.45;;
76612;SDS011;65507;48.454;-2.058;2024-03-08T13:52:46;6.95;;;2.83;;
76612;SDS011;65507;48.454;-2.058;2024-03-08T13:55:14;6.30;;;2.55;;
76612;SDS011;65507;48.454;-2.058;2024-03-08T13:57:40;6.63;;;2.15;;
76612;SDS011;65507;48.454;-2.058;2024-03-08T14:00:06;5.03;;;2.30;;
76612;SDS011;65507;48.454;-2.058;2024-03-08T14:02:33;4.40;;;2.72;;
76612;SDS011;65507;48.454;-2.058;2024-03-08T14:04:59;14.85;;;4.70;;
76612;SDS011;65507;48.454;-2.058;2024-03-08T14:07:26;6.05;;;2.95;;
76612;SDS011;65507;48.454;-2.058;2024-03-08T14:12:19;5.73;;;2.60;;
76612;SDS011;65507;48.454;-2.058;2024-03-08T14:14:45;5.68;;;2.38;;
76612;SDS011;65507;48.454;-2.058;2024-03-08T14:17:11;5.25;;;2.50;;
76612;SDS011;65507;48.454;-2.058;2024-03-08T14:19:42;5.65;;;2.17;;
76612;SDS011;65507;48.454;-2.058;2024-03-08T14:22:08;7.28;;;2.50;;
76612;SDS011;65507;48.454;-2.058;2024-03-08T14:24:36;3.08;;;2.20;;
76612;SDS011;65507;48.454;-2.058;2024-03-08T14:27:02;6.97;;;2.47;;
76612;SDS011;65507;48.454;-2.058;2024-03-08T14:31:57;6.97;;;2.50;;
76612;SDS011;65507;48.454;-2.058;2024-03-08T14:34:27;5.53;;;2.70;;
76612;SDS011;65507;48.454;-2.058;2024-03-08T14:36:54;5.40;;;2.53;;
76612;SDS011;65507;48.454;-2.058;2024-03-08T14:39:21;4.55;;;2.60;;
76612;SDS011;65507;48.454;-2.058;2024-03-08T14:41:51;5.45;;;2.83;;
76612;SDS011;65507;48.454;-2.058;2024-03-08T14:46:44;5.85;;;2.90;;
76612;SDS011;65507;48.454;-2.058;2024-03-08T14:49:10;4.05;;;2.65;;
76612;SDS011;65507;48.454;-2.058;2024-03-08T14:51:36;7.30;;;3.40;;
76612;SDS011;65507;48.454;-2.058;2024-03-08T14:54:02;3.72;;;2.55;;